Time;durP1;ratioP1;P1;durP2;ratioP2;P2;SDS_P1;SDS_P2;PMS_P1;PMS_P2;Temp;Humidity;BMP_temperature;BMP_pressure;BME280_temperature;BME280_humidity;BME280_pressure;Samples;Min_cycle;Max_cycle;Signal;HPM_P1;HPM_P2
2022/03/09 05:02:38;;;;;;;22.05;12.27;;;;;;;4.15;46.03;101079.16;5605080;31;76954;-54
2022/03/09 05:05:41;;;;;;;19.40;12.50;;;;;;;4.15;46.03;101079.16;5592434;31;34038;-54
2022/03/09 05:08:43;;;;;;;19.10;12.23;;;;;;;3.78;46.60;101066.91;5599048;31;33207;-55
2022/03/09 05:11:46;;;;;;;18.80;11.63;;;;;;;3.73;46.32;101070.19;5600568;31;33922;-54
2022/03/09 05:14:48;;;;;;;20.23;11.80;;;;;;;3.75;46.68;101068.13;5602906;31;33556;-54
2022/03/09 05:17:50;;;;;;;21.67;13.00;;;;;;;3.76;46.81;101072.41;5603068;31;33289;-54
2022/03/09 05:20:52;;;;;;;21.75;13.20;;;;;;;4.03;46.65;101072.16;5602192;31;33880;-54
2022/03/09 05:23:55;;;;;;;23.12;13.02;;;;;;;4.05;46.58;101075.41;5602665;31;33452;-54
2022/03/09 05:26:57;;;;;;;23.65;12.98;;;;;;;3.95;46.47;101078.56;5602571;31;34191;-54
2022/03/09 05:30:00;;;;;;;21.15;13.10;;;;;;;3.90;46.47;101086.34;5602596;31;34267;-54
2022/03/09 05:33:02;;;;;;;24.80;12.88;;;;;;;3.94;46.39;101079.56;5597118;31;33597;-54
2022/03/09 05:36:04;;;;;;;19.40;12.95;;;;;;;3.92;46.53;101081.66;5593175;31;33658;-54
2022/03/09 05:39:07;;;;;;;23.85;13.60;;;;;;;4.16;45.92;101080.78;5599756;31;33775;-54
2022/03/09 05:42:10;;;;;;;23.75;14.50;;;;;;;4.03;46.00;101066.84;5593050;31;34352;-54
2022/03/09 05:45:13;;;;;;;31.42;14.10;;;;;;;3.85;46.02;101073.75;5592979;31;33700;-54
2022/03/09 05:48:22;;;;;;;29.42;17.45;;;;;;;3.74;46.84;101083.25;5586396;31;34306;-54
2022/03/09 05:51:25;;;;;;;27.50;16.45;;;;;;;3.79;46.09;101089.72;5583166;31;33306;-55
2022/03/09 05:54:28;;;;;;;24.40;15.38;;;;;;;3.74;46.63;101100.97;5590264;31;33198;-55
2022/03/09 05:57:30;;;;;;;30.90;16.45;;;;;;;3.87;46.41;101124.72;5582700;31;34284;-54
2022/03/09 06:00:33;;;;;;;24.25;15.00;;;;;;;4.03;45.87;101120.72;5582082;31;33608;-55
2022/03/09 06:03:35;;;;;;;22.73;14.25;;;;;;;4.18;45.13;101129.16;5588717;31;33256;-54
2022/03/09 06:06:38;;;;;;;28.05;14.95;;;;;;;4.20;45.00;101128.91;5583095;31;33568;-55
2022/03/09 06:09:41;;;;;;;26.42;16.02;;;;;;;4.16;45.39;101135.69;5582716;31;33668;-54
2022/03/09 06:12:43;;;;;;;26.45;14.73;;;;;;;4.30;45.78;101136.38;5575372;31;33692;-54
2022/03/09 06:15:51;;;;;;;29.27;15.15;;;;;;;4.25;46.07;101134.41;5579653;31;33593;-55
2022/03/09 06:18:53;;;;;;;35.88;15.80;;;;;;;4.24;45.91;101136.25;5588698;31;33293;-54
2022/03/09 06:21:55;;;;;;;27.37;15.93;;;;;;;4.26;45.64;101133.34;5583609;31;33318;-54
2022/03/09 06:24:58;;;;;;;30.23;15.57;;;;;;;4.31;45.44;101143.31;5568329;32;33548;-54
2022/03/09 06:28:00;;;;;;;22.65;15.65;;;;;;;4.40;45.36;101141.97;5559431;31;33742;-54
2022/03/09 06:31:03;;;;;;;23.73;14.90;;;;;;;4.42;45.66;101142.59;5576582;31;33645;-55
2022/03/09 06:34:05;;;;;;;28.02;14.65;;;;;;;4.48;45.70;101141.72;5575869;31;33205;-54
2022/03/09 06:37:07;;;;;;;24.42;14.35;;;;;;;4.48;45.03;101131.09;5571750;31;34359;-55
2022/03/09 06:40:11;;;;;;;27.23;14.57;;;;;;;4.51;45.27;101135.16;5563457;31;34316;-54
2022/03/09 06:43:13;;;;;;;23.33;14.52;;;;;;;4.65;45.74;101140.09;5564279;31;34432;-54
2022/03/09 06:46:16;;;;;;;28.35;14.30;;;;;;;4.68;45.73;101147.59;5577703;31;33688;-54
2022/03/09 06:49:19;;;;;;;27.17;14.77;;;;;;;4.68;46.51;101152.09;5568228;32;33986;-54
2022/03/09 06:52:21;;;;;;;24.80;15.43;;;;;;;4.74;45.32;101150.41;5569051;31;33290;-54
2022/03/09 06:55:23;;;;;;;25.00;15.50;;;;;;;4.77;44.96;101153.44;5573335;31;33667;-54
2022/03/09 06:58:26;;;;;;;21.60;15.13;;;;;;;4.87;45.61;101147.59;5572964;31;33395;-54
2022/03/09 07:01:29;;;;;;;26.75;15.82;;;;;;;4.86;45.09;101149.44;5566197;31;33617;-55
2022/03/09 07:04:33;;;;;;;25.55;15.40;;;;;;;4.72;45.11;101143.47;5577039;31;33667;-55
2022/03/09 07:07:36;;;;;;;28.45;15.75;;;;;;;4.71;45.44;101147.16;5568995;31;34480;-55
2022/03/09 07:10:39;;;;;;;30.12;16.55;;;;;;;4.93;45.46;101149.34;5568678;32;33611;-54
2022/03/09 07:13:44;;;;;;;29.92;16.42;;;;;;;5.00;44.77;101151.91;5567837;32;34399;-54
2022/03/09 07:16:47;;;;;;;26.05;15.73;;;;;;;5.18;45.00;101163.34;5586065;31;33697;-55
2022/03/09 07:19:51;;;;;;;26.40;16.77;;;;;;;5.34;44.86;101180.50;5568627;31;34313;-55
2022/03/09 07:22:55;;;;;;;34.53;17.05;;;;;;;5.35;45.95;101182.13;5568062;31;33860;-54
2022/03/09 07:26:04;;;;;;;27.95;16.77;;;;;;;5.63;44.68;101186.03;5578431;31;33660;-54
2022/03/09 07:29:11;;;;;;;33.60;18.73;;;;;;;5.60;44.60;101178.53;5569086;31;34380;-55
2022/03/09 07:32:14;;;;;;;32.33;17.00;;;;;;;5.54;44.42;101176.75;5570272;31;33445;-54
2022/03/09 07:35:37;;;;;;;28.30;18.17;;;;;;;5.56;45.06;101156.88;5568749;31;33630;-55
2022/03/09 07:38:40;;;;;;;26.37;18.45;;;;;;;5.64;45.02;101145.09;5568826;31;33638;-55
2022/03/09 07:42:04;;;;;;;27.20;17.42;;;;;;;5.74;45.88;101144.53;5559589;31;33820;-55
2022/03/09 07:45:11;;;;;;;;;;;;;;;5.88;44.63;101145.94;5569362;31;33087;-55
2022/03/09 07:48:15;;;;;;;24.70;17.15;;;;;;;5.88;44.23;101149.41;5568414;31;34598;-55
2022/03/09 07:51:17;;;;;;;29.48;17.90;;;;;;;5.95;44.14;101141.34;5569471;31;33728;-54
2022/03/09 07:54:20;;;;;;;27.80;17.45;;;;;;;6.13;44.24;101132.44;5569810;31;34036;-54
2022/03/09 07:57:24;;;;;;;28.75;18.48;;;;;;;6.10;44.22;101130.25;5559892;32;34424;-56
2022/03/09 08:00:27;;;;;;;26.65;18.50;;;;;;;6.17;44.35;101133.59;5569950;31;33550;-55
2022/03/09 08:03:29;;;;;;;28.45;18.87;;;;;;;6.20;44.58;101132.34;5565589;31;34290;-54
2022/03/09 08:06:38;;;;;;;32.85;18.27;;;;;;;6.31;44.50;101119.00;5567692;32;33610;-55
2022/03/09 08:09:42;;;;;;;31.98;19.35;;;;;;;6.17;44.61;101117.63;5567712;32;33591;-55
2022/03/09 08:12:45;;;;;;;32.05;19.33;;;;;;;6.07;44.56;101110.22;5553559;31;32213;-54
2022/03/09 08:15:49;;;;;;;31.17;19.87;;;;;;;6.06;44.82;101105.13;5573257;31;33648;-55
2022/03/09 08:18:52;;;;;;;28.15;20.05;;;;;;;6.09;45.20;101118.81;5567823;31;34106;-55
2022/03/09 08:22:00;;;;;;;32.15;19.98;;;;;;;6.17;44.47;101116.81;5568549;31;33537;-54
2022/03/09 08:25:03;;;;;;;27.25;17.48;;;;;;;6.39;44.14;101109.03;5570911;31;34398;-55
2022/03/09 08:28:05;;;;;;;26.70;17.12;;;;;;;6.32;43.73;101099.34;5567224;32;34384;-55
2022/03/09 08:31:08;;;;;;;25.48;17.40;;;;;;;6.53;43.67;101113.06;5566891;31;33727;-55
2022/03/09 08:34:10;;;;;;;28.08;16.37;;;;;;;6.61;43.25;101102.03;5570621;31;33719;-54
2022/03/09 08:37:13;;;;;;;25.73;17.80;;;;;;;6.72;43.37;101106.53;5567802;32;33578;-54
2022/03/09 08:40:15;;;;;;;25.45;17.77;;;;;;;6.88;43.36;101098.81;5569884;31;33686;-55
2022/03/09 08:43:18;;;;;;;29.08;18.45;;;;;;;6.93;42.93;101096.25;5583915;31;33645;-54
2022/03/09 08:46:20;;;;;;;29.20;18.37;;;;;;;7.07;43.08;101095.72;5587105;31;32257;-54
2022/03/09 08:49:23;;;;;;;27.65;18.00;;;;;;;7.14;42.39;101089.44;5572219;31;33757;-54
2022/03/09 08:52:25;;;;;;;26.87;17.52;;;;;;;7.05;43.09;101084.50;5568151;31;33705;-55
2022/03/09 08:55:27;;;;;;;29.73;19.20;;;;;;;7.22;42.67;101075.72;5565816;31;33740;-55
2022/03/09 08:58:30;;;;;;;26.10;17.40;;;;;;;7.32;42.26;101083.06;5560218;31;33852;-54
2022/03/09 09:01:32;;;;;;;26.15;16.33;;;;;;;7.44;42.17;101083.81;5572318;31;33706;-55
2022/03/09 09:04:46;;;;;;;25.83;16.12;;;;;;;7.54;41.94;101079.44;5566583;31;33730;-55
2022/03/09 09:07:50;;;;;;;25.20;16.45;;;;;;;7.71;41.86;101078.63;5567960;31;33697;-55
2022/03/09 09:10:53;;;;;;;27.23;17.02;;;;;;;7.81;41.94;101084.13;5564902;31;34279;-55
2022/03/09 09:13:55;;;;;;;26.58;16.92;;;;;;;7.88;40.73;101074.09;5565587;31;33949;-55
2022/03/09 09:16:58;;;;;;;23.10;15.98;;;;;;;8.01;41.43;101072.94;5571479;31;33564;-54
2022/03/09 09:20:00;;;;;;;23.08;15.35;;;;;;;8.08;41.11;101067.41;5566708;31;33311;-55
2022/03/09 09:23:04;;;;;;;14.55;10.02;;;;;;;8.19;40.65;101063.84;5579154;31;32979;-54
2022/03/09 09:26:09;;;;;;;17.15;9.07;;;;;;;8.10;39.25;101065.31;5584946;31;33731;-54
2022/03/09 09:29:33;;;;;;;9.40;7.07;;;;;;;8.06;39.02;101077.56;5570212;31;33212;-54
2022/03/09 09:32:35;;;;;;;9.50;7.05;;;;;;;7.74;39.54;101068.28;5565154;31;34208;-55
2022/03/09 09:35:38;;;;;;;10.18;7.05;;;;;;;7.85;40.12;101066.59;5567106;31;33637;-54
2022/03/09 09:38:40;;;;;;;9.30;6.43;;;;;;;7.79;40.11;101075.56;5572036;31;33656;-54
2022/03/09 09:41:46;;;;;;;12.45;7.82;;;;;;;7.72;40.42;101070.41;5567634;31;33625;-54
2022/03/09 09:44:48;;;;;;;13.05;8.25;;;;;;;7.79;40.19;101061.41;5566107;31;33588;-54
2022/03/09 09:47:51;;;;;;;14.20;9.05;;;;;;;7.94;40.61;101072.31;5559715;31;33383;-54
2022/03/09 09:50:54;;;;;;;14.27;9.15;;;;;;;7.66;40.48;101075.91;5576631;31;33350;-54
2022/03/09 09:53:58;;;;;;;14.55;8.75;;;;;;;7.69;40.77;101064.75;5575430;31;34379;-54
2022/03/09 09:57:00;;;;;;;33.42;10.05;;;;;;;8.00;41.37;101069.47;5573070;31;34291;-54
2022/03/09 10:00:05;;;;;;;17.35;9.45;;;;;;;7.99;40.83;101067.84;5567891;31;33987;-55
2022/03/09 10:03:13;;;;;;;12.15;8.43;;;;;;;7.99;40.79;101067.84;5570480;31;34162;-54
2022/03/09 10:06:15;;;;;;;13.98;9.45;;;;;;;7.78;40.93;101068.59;5573675;31;33734;-54
2022/03/09 10:09:19;;;;;;;14.20;8.55;;;;;;;7.91;40.88;101059.44;5570958;31;33705;-54
2022/03/09 10:12:27;;;;;;;14.27;9.65;;;;;;;7.95;41.06;101069.41;5570696;31;33631;-55
2022/03/09 10:15:33;;;;;;;14.57;9.27;;;;;;;8.11;41.03;101064.25;5568446;31;33779;-54
2022/03/09 10:18:36;;;;;;;15.88;9.20;;;;;;;8.21;41.16;101059.88;5570501;31;33635;-55
2022/03/09 10:21:40;;;;;;;15.30;9.57;;;;;;;8.53;39.87;101063.75;5573579;31;33973;-55
2022/03/09 10:24:42;;;;;;;16.30;9.30;;;;;;;8.48;40.31;101059.16;5577622;31;33632;-54
2022/03/09 10:27:49;;;;;;;17.02;9.48;;;;;;;8.50;39.96;101057.03;5575840;31;34372;-54
2022/03/09 10:30:51;;;;;;;12.37;8.32;;;;;;;8.66;39.53;101048.13;5574208;31;33294;-54
2022/03/09 10:34:08;;;;;;;14.85;8.75;;;;;;;8.47;39.80;101049.50;5571339;31;34308;-54
2022/03/09 10:37:10;;;;;;;12.45;7.90;;;;;;;8.46;40.23;101037.22;5566336;32;33635;-54
2022/03/09 10:40:19;;;;;;;11.80;8.15;;;;;;;8.43;39.86;101032.38;5572733;31;33651;-54
2022/03/09 10:43:25;;;;;;;14.15;8.93;;;;;;;8.45;40.46;101025.72;5575496;31;33696;-54
2022/03/09 10:46:41;;;;;;;14.90;9.23;;;;;;;8.43;39.84;101024.34;5569047;32;33685;-54
2022/03/09 10:49:43;;;;;;;12.45;9.63;;;;;;;8.58;40.36;101021.06;5572014;31;33630;-55
2022/03/09 10:52:54;;;;;;;16.48;9.45;;;;;;;8.76;39.99;101023.37;5569539;31;32982;-56
2022/03/09 10:55:59;;;;;;;13.38;9.93;;;;;;;8.92;39.36;101011.78;5568056;31;33637;-55
2022/03/09 10:59:20;;;;;;;18.90;11.10;;;;;;;8.88;40.02;101005.31;5570466;31;33717;-56
2022/03/09 11:02:23;;;;;;;17.35;11.15;;;;;;;8.78;40.21;100994.53;5570305;31;34441;-55
2022/03/09 11:05:26;;;;;;;16.90;10.90;;;;;;;8.92;39.82;101003.75;5578790;31;33692;-55
2022/03/09 11:08:31;;;;;;;14.43;11.38;;;;;;;8.93;40.02;100994.66;5571855;31;33768;-54
2022/03/09 11:11:33;;;;;;;17.10;11.75;;;;;;;8.88;40.18;100993.81;5588778;31;33768;-55
2022/03/09 11:14:38;;;;;;;16.55;11.70;;;;;;;9.13;40.17;100995.91;5574957;31;34409;-55
2022/03/09 11:17:41;;;;;;;17.45;11.25;;;;;;;8.82;40.28;100989.50;5571344;31;33642;-55
2022/03/09 11:20:45;;;;;;;15.88;12.37;;;;;;;9.06;40.61;100992.63;5569294;31;34325;-54
2022/03/09 11:23:47;;;;;;;17.45;12.15;;;;;;;8.89;40.84;100995.44;5570161;31;34287;-55
2022/03/09 11:27:01;;;;;;;16.20;11.07;;;;;;;8.89;40.98;100984.72;5569427;31;34051;-55
2022/03/09 11:30:22;;;;;;;17.95;11.50;;;;;;;8.83;40.60;100983.88;5569668;31;34044;-55
2022/03/09 11:33:54;;;;;;;15.15;12.13;;;;;;;9.12;40.66;100980.91;5587388;31;34292;-55
2022/03/09 11:37:04;;;;;;;15.70;11.30;;;;;;;9.18;40.29;100988.72;5554923;32;33651;-55
2022/03/09 11:40:07;;;;;;;15.82;11.38;;;;;;;9.27;40.19;100986.41;5576184;31;33711;-54
2022/03/09 11:43:30;;;;;;;16.00;11.70;;;;;;;9.40;39.89;100974.41;5569220;31;33367;-55
2022/03/09 11:46:59;;;;;;;17.00;12.50;;;;;;;9.34;39.66;100970.94;5568865;32;33843;-55
2022/03/09 11:50:07;;;;;;;18.80;12.13;;;;;;;9.52;40.02;100969.69;5552090;31;33901;-54
2022/03/09 11:53:09;;;;;;;16.70;12.07;;;;;;;9.53;39.83;100970.50;5567546;31;33401;-55
2022/03/09 11:56:25;;;;;;;15.77;11.30;;;;;;;9.56;39.54;100953.91;5572555;31;33270;-55
2022/03/09 11:59:29;;;;;;;12.52;9.18;;;;;;;9.67;39.63;100957.44;5568810;32;33812;-55
2022/03/09 12:02:39;;;;;;;13.10;8.05;;;;;;;9.82;38.92;100953.00;5568336;32;34236;-55
2022/03/09 12:05:42;;;;;;;14.90;9.63;;;;;;;10.00;38.20;100943.72;5568558;32;33663;-55
2022/03/09 12:08:46;;;;;;;11.48;9.10;;;;;;;10.23;38.03;100945.13;5577200;31;34228;-55
2022/03/09 12:12:07;;;;;;;11.98;8.77;;;;;;;10.20;37.29;100937.59;5580662;31;33888;-55
2022/03/09 12:15:16;;;;;;;15.15;9.93;;;;;;;10.28;37.35;100929.06;5568164;31;34323;-55
2022/03/09 12:18:34;;;;;;;15.00;10.82;;;;;;;10.22;37.87;100935.44;5566986;32;33603;-55
2022/03/09 12:22:01;;;;;;;14.65;9.93;;;;;;;10.17;37.88;100929.28;5570470;31;33530;-55
2022/03/09 12:25:54;;;;;;;14.00;10.35;;;;;;;10.27;37.95;100930.16;5562069;31;33726;-56
2022/03/09 12:28:56;;;;;;;15.63;10.32;;;;;;;10.24;38.32;100944.03;5551230;32;33785;-55
2022/03/09 12:31:58;;;;;;;13.90;10.35;;;;;;;10.03;38.40;100934.31;5572453;31;33618;-55
2022/03/09 12:35:05;;;;;;;18.17;10.75;;;;;;;9.95;38.84;100929.47;5568694;31;33741;-56
2022/03/09 12:38:09;;;;;;;13.45;8.85;;;;;;;10.01;39.21;100934.59;5569212;31;34401;-55
2022/03/09 12:41:25;;;;;;;11.43;8.88;;;;;;;10.12;38.05;100919.34;5567682;32;34348;-55
2022/03/09 12:44:30;;;;;;;16.65;10.15;;;;;;;10.40;37.91;100928.84;5563705;31;33681;-56
2022/03/09 12:47:35;;;;;;;15.40;10.60;;;;;;;10.62;37.42;100925.09;5572782;31;33751;-55
2022/03/09 12:50:38;;;;;;;16.00;10.55;;;;;;;10.29;37.93;100929.88;5570324;31;34368;-55
2022/03/09 12:53:44;;;;;;;17.37;11.15;;;;;;;10.37;38.43;100924.00;5554169;32;33784;-55
2022/03/09 12:56:49;;;;;;;16.00;11.12;;;;;;;10.53;38.88;100920.28;5567146;32;34404;-56
2022/03/09 13:00:17;;;;;;;15.38;10.20;;;;;;;10.58;39.14;100927.53;5563241;32;34380;-55
2022/03/09 13:03:21;;;;;;;15.63;9.90;;;;;;;10.58;38.12;100922.16;5570217;31;34454;-55
2022/03/09 13:06:32;;;;;;;13.82;9.95;;;;;;;10.56;38.49;100924.28;5548860;32;34333;-55
2022/03/09 13:09:35;;;;;;;13.45;10.38;;;;;;;10.49;38.23;100921.06;5566745;32;33595;-55
2022/03/09 13:12:52;;;;;;;13.95;9.45;;;;;;;10.66;37.97;100921.66;5567716;32;34298;-55
2022/03/09 13:16:02;;;;;;;12.88;9.48;;;;;;;10.60;37.30;100920.03;5567003;31;35907;-55
2022/03/09 13:19:06;;;;;;;12.93;7.35;;;;;;;10.83;37.37;100924.06;5568885;31;34327;-55
2022/03/09 13:22:08;;;;;;;14.18;7.95;;;;;;;10.41;36.65;100916.25;5579435;31;34295;-55
2022/03/09 13:25:12;;;;;;;11.07;7.85;;;;;;;10.61;38.46;100915.47;5577608;31;33660;-55
2022/03/09 13:28:14;;;;;;;12.50;8.25;;;;;;;10.82;37.20;100911.69;5590037;31;34352;-55
2022/03/09 13:31:17;;;;;;;12.05;7.72;;;;;;;10.81;36.48;100910.09;5576495;31;33951;-55
2022/03/09 13:34:39;;;;;;;10.88;7.70;;;;;;;10.89;36.42;100906.06;5574420;31;33736;-55
2022/03/09 13:37:41;;;;;;;11.00;7.70;;;;;;;11.05;36.48;100904.97;5570379;31;34347;-55
2022/03/09 13:40:45;;;;;;;12.30;8.48;;;;;;;11.01;36.80;100896.69;5569735;32;33751;-55
2022/03/09 13:43:47;;;;;;;11.27;8.13;;;;;;;11.11;36.73;100892.38;5570375;32;34281;-55
2022/03/09 13:47:08;;;;;;;11.38;8.20;;;;;;;11.11;36.77;100890.50;5570360;32;33760;-55
2022/03/09 13:50:17;;;;;;;13.88;9.75;;;;;;;11.10;36.92;100891.56;5550766;32;34327;-55
2022/03/09 13:53:20;;;;;;;13.73;9.52;;;;;;;10.85;37.56;100894.28;5550885;32;33683;-55
2022/03/09 13:56:23;;;;;;;11.55;8.57;;;;;;;10.77;37.60;100892.94;5568359;31;34362;-55
2022/03/09 13:59:41;;;;;;;13.55;9.25;;;;;;;10.77;37.67;100899.09;5571867;31;33756;-55
2022/03/09 14:02:43;;;;;;;15.40;9.07;;;;;;;10.80;37.81;100893.22;5570023;32;33682;-55
2022/03/09 14:05:51;;;;;;;11.50;8.23;;;;;;;10.68;37.89;100894.56;5570137;32;34017;-55
2022/03/09 14:08:55;;;;;;;15.05;8.95;;;;;;;10.68;42.86;100884.63;5570324;31;33628;-55
2022/03/09 14:11:57;;;;;;;11.30;7.97;;;;;;;10.81;38.35;100881.41;5569771;32;33588;-55
2022/03/09 14:15:00;;;;;;;12.68;7.70;;;;;;;10.77;37.66;100882.22;5569279;31;33889;-55
2022/03/09 14:18:03;;;;;;;11.82;8.15;;;;;;;10.65;37.33;100882.47;5576628;31;34027;-55
2022/03/09 14:21:05;;;;;;;12.13;8.55;;;;;;;10.57;37.79;100883.81;5588837;31;33703;-55
2022/03/09 14:24:08;;;;;;;16.67;9.40;;;;;;;10.66;38.06;100885.97;5583338;31;34274;-56
2022/03/09 14:27:10;;;;;;;12.95;8.60;;;;;;;10.52;38.41;100897.22;5583755;31;33966;-54
2022/03/09 14:30:17;;;;;;;13.02;8.68;;;;;;;10.57;38.77;100889.19;5569419;32;33701;-55
2022/03/09 14:33:20;;;;;;;12.10;8.73;;;;;;;10.54;38.94;100905.00;5569492;31;33521;-55
2022/03/09 14:36:23;;;;;;;12.95;9.20;;;;;;;10.29;39.16;100887.78;5569018;32;33799;-55
2022/03/09 14:39:25;;;;;;;12.00;9.00;;;;;;;10.27;39.31;100889.97;5569187;32;33798;-55
2022/03/09 14:42:28;;;;;;;10.93;8.40;;;;;;;10.40;39.20;100894.00;5569723;31;33753;-55
2022/03/09 14:45:31;;;;;;;13.65;9.18;;;;;;;10.48;39.02;100887.31;5569003;32;33566;-55
2022/03/09 14:48:34;;;;;;;13.45;8.93;;;;;;;10.55;39.76;100895.88;5569150;32;33639;-54
2022/03/09 14:51:36;;;;;;;13.18;8.85;;;;;;;10.57;38.72;100891.06;5569314;32;33682;-55
2022/03/09 14:54:41;;;;;;;12.70;8.73;;;;;;;10.54;38.79;100894.28;5583723;31;34442;-55
2022/03/09 14:57:44;;;;;;;16.58;9.02;;;;;;;10.52;39.05;100893.72;5588647;31;33695;-55
2022/03/09 15:00:48;;;;;;;12.75;8.52;;;;;;;10.50;38.98;100888.66;5588363;31;33686;-52
2022/03/09 15:03:50;;;;;;;11.77;8.90;;;;;;;10.51;39.81;100894.81;5586576;31;33738;-52
2022/03/09 15:06:59;;;;;;;12.43;9.02;;;;;;;10.63;39.39;100903.41;5588648;31;34370;-53
2022/03/09 15:10:03;;;;;;;16.50;10.25;;;;;;;10.49;39.65;100895.06;5588450;31;33778;-53
2022/03/09 15:13:05;;;;;;;14.77;10.40;;;;;;;10.37;39.96;100899.88;5588200;31;34343;-53
2022/03/09 15:16:10;;;;;;;14.80;10.23;;;;;;;10.25;40.41;100901.97;5579414;31;34204;-55
2022/03/09 15:19:13;;;;;;;12.57;9.52;;;;;;;10.21;40.94;100901.69;5588356;31;34500;-53
2022/03/09 15:22:15;;;;;;;12.88;9.65;;;;;;;10.11;40.59;100899.00;5587947;31;34447;-53
2022/03/09 15:25:18;;;;;;;15.10;9.88;;;;;;;10.31;40.15;100895.59;5571906;31;33681;-53
2022/03/09 15:28:20;;;;;;;14.00;9.23;;;;;;;10.27;40.23;100906.03;5570669;31;34350;-53
2022/03/09 15:31:22;;;;;;;17.33;10.25;;;;;;;10.29;40.95;100903.88;5584248;31;34475;-52
2022/03/09 15:34:27;;;;;;;12.43;9.38;;;;;;;10.24;40.25;100901.16;5587083;31;34386;-53
2022/03/09 15:37:29;;;;;;;11.82;8.65;;;;;;;10.39;39.77;100894.25;5588625;31;33346;-53
2022/03/09 15:40:31;;;;;;;11.43;8.98;;;;;;;10.24;39.83;100903.84;5588231;31;33678;-54
2022/03/09 15:43:34;;;;;;;13.40;8.43;;;;;;;10.37;40.34;100899.88;5572510;31;34108;-53
2022/03/09 15:46:37;;;;;;;15.10;9.15;;;;;;;10.35;39.45;100897.47;5567680;32;33824;-52
2022/03/09 15:49:39;;;;;;;10.75;8.70;;;;;;;10.29;39.35;100897.72;5574278;31;34387;-54
2022/03/09 15:52:42;;;;;;;12.40;9.55;;;;;;;10.22;39.56;100902.50;5569311;31;34509;-53
2022/03/09 15:55:44;;;;;;;12.50;9.20;;;;;;;10.16;39.99;100900.88;5568055;32;33775;-53
2022/03/09 15:58:46;;;;;;;13.27;8.95;;;;;;;10.15;40.00;100907.31;5569552;31;33267;-53
2022/03/09 16:01:49;;;;;;;17.05;10.25;;;;;;;10.05;39.95;100908.88;5550262;31;33702;-53
2022/03/09 16:04:52;;;;;;;15.98;10.13;;;;;;;9.91;40.27;100906.97;5549250;32;33441;-52
2022/03/09 16:07:58;;;;;;;17.30;10.50;;;;;;;9.95;40.52;100906.19;5549312;32;33146;-53
2022/03/09 16:11:00;;;;;;;13.75;9.43;;;;;;;10.01;40.38;100910.47;5548411;32;34297;-53
2022/03/09 16:14:02;;;;;;;13.50;9.73;;;;;;;9.93;40.28;100905.63;5559182;32;33606;-52
2022/03/09 16:17:07;;;;;;;13.98;9.25;;;;;;;9.87;40.00;100912.84;5568946;32;33663;-53
2022/03/09 16:20:11;;;;;;;13.93;9.23;;;;;;;9.86;40.14;100910.41;5568210;32;33380;-53
2022/03/09 16:23:14;;;;;;;13.68;9.13;;;;;;;9.86;40.06;100913.91;5568687;32;33700;-53
2022/03/09 16:26:17;;;;;;;13.60;9.90;;;;;;;9.95;39.76;100908.06;5568227;32;34296;-53
2022/03/09 16:29:19;;;;;;;12.57;9.15;;;;;;;9.85;39.83;100904.25;5568773;32;33676;-53
2022/03/09 16:32:22;;;;;;;13.85;9.40;;;;;;;9.86;40.17;100905.88;5568667;32;34314;-53
2022/03/09 16:35:24;;;;;;;16.40;9.75;;;;;;;9.79;39.69;100909.84;5568688;32;33756;-53
